Time;durP1;ratioP1;P1;durP2;ratioP2;P2;SDS_P1;SDS_P2;PMS_P1;PMS_P2;Temp;Humidity;BMP_temperature;BMP_pressure;BME280_temperature;BME280_humidity;BME280_pressure;Samples;Min_cycle;Max_cycle;Signal;HPM_P1;HPM_P2
2021/04/16 00:01:50;;;;;;;3.47;2.20;;;24.80;35.90;;;;;;5067006;28;20035;-53
2021/04/16 00:04:16;;;;;;;4.38;2.40;;;24.80;36.40;;;;;;5077349;28;20032;-56
2021/04/16 00:06:41;;;;;;;3.50;2.30;;;24.80;35.90;;;;;;5079340;28;20050;-58
2021/04/16 00:09:08;;;;;;;4.35;2.50;;;24.70;35.80;;;;;;5077850;28;20032;-56
2021/04/16 00:11:34;;;;;;;4.00;2.28;;;24.70;35.80;;;;;;5082444;28;20118;-57
2021/04/16 00:14:00;;;;;;;3.40;2.35;;;24.70;35.80;;;;;;5081569;28;20487;-55
2021/04/16 00:16:28;;;;;;;3.80;2.38;;;24.70;35.80;;;;;;5081355;28;20074;-54
2021/04/16 00:18:53;;;;;;;3.80;2.33;;;24.70;35.80;;;;;;5082538;28;20156;-51
2021/04/16 00:21:19;;;;;;;3.17;2.20;;;24.70;35.80;;;;;;5075532;28;20438;-58
2021/04/16 00:23:45;;;;;;;3.10;2.00;;;24.70;35.90;;;;;;5083191;28;20040;-57
2021/04/16 00:26:12;;;;;;;3.08;2.00;;;24.70;35.80;;;;;;5080665;28;20054;-51
2021/04/16 00:28:39;;;;;;;3.42;2.30;;;24.70;35.80;;;;;;5074086;28;20044;-55
2021/04/16 00:31:10;;;;;;;3.42;2.33;;;24.70;36.40;;;;;;5079770;28;20055;-56
2021/04/16 00:33:36;;;;;;;3.10;2.00;;;24.70;35.90;;;;;;5080443;28;20108;-53
2021/04/16 00:36:02;;;;;;;3.40;2.10;;;24.60;35.80;;;;;;5085224;28;20028;-51
2021/04/16 00:38:27;;;;;;;3.50;2.20;;;24.60;35.90;;;;;;5086376;28;20376;-56
2021/04/16 00:40:57;;;;;;;3.72;2.05;;;24.60;35.80;;;;;;5082352;28;20028;-58
2021/04/16 00:43:25;;;;;;;3.13;1.90;;;24.60;35.80;;;;;;5082287;28;20685;-52
2021/04/16 00:45:59;;;;;;;3.25;2.00;;;24.60;35.80;;;;;;5085734;28;20047;-53
2021/04/16 00:48:32;;;;;;;3.95;2.22;;;24.60;35.80;;;;;;5083372;28;20024;-53
2021/04/16 00:51:02;;;;;;;2.95;2.03;;;24.60;35.80;;;;;;5082554;28;20032;-53
2021/04/16 00:53:27;;;;;;;3.80;2.00;;;24.60;35.90;;;;;;5084552;28;20043;-57
2021/04/16 00:55:54;;;;;;;3.08;1.83;;;24.60;35.80;;;;;;5084134;28;20036;-54
2021/04/16 00:58:23;;;;;;;3.15;2.00;;;24.60;35.90;;;;;;5084964;28;20425;-55
2021/04/16 01:00:53;;;;;;;3.35;2.10;;;24.60;35.80;;;;;;5083010;28;20036;-55
2021/04/16 01:03:19;;;;;;;2.95;1.75;;;24.60;35.80;;;;;;5081373;28;20059;-54
2021/04/16 01:05:45;;;;;;;3.38;2.15;;;24.60;35.90;;;;;;5084517;28;20121;-53
2021/04/16 01:08:11;;;;;;;3.28;1.88;;;24.60;35.80;;;;;;5084386;28;20047;-51
2021/04/16 01:10:37;;;;;;;3.50;2.15;;;24.60;35.80;;;;;;5082316;28;20129;-52
2021/04/16 01:13:03;;;;;;;2.95;1.92;;;24.50;35.80;;;;;;5082564;28;20032;-53
2021/04/16 01:15:33;;;;;;;3.13;1.80;;;24.60;35.80;;;;;;5069852;28;20055;-53
2021/04/16 01:18:22;;;;;;;3.25;1.75;;;24.60;35.80;;;;;;5076558;28;20032;-52
2021/04/16 01:20:50;;;;;;;2.97;1.80;;;24.50;35.80;;;;;;5080554;28;20321;-56
2021/04/16 01:23:27;;;;;;;2.80;1.63;;;24.50;35.80;;;;;;5082042;28;20423;-54
2021/04/16 01:25:55;;;;;;;2.60;1.70;;;24.50;35.80;;;;;;5081453;28;20036;-54
2021/04/16 01:28:21;;;;;;;2.95;1.77;;;24.50;35.80;;;;;;5083756;28;20039;-52
2021/04/16 01:30:56;;;;;;;3.00;1.80;;;24.50;35.80;;;;;;5081090;28;20039;-55
2021/04/16 01:33:22;;;;;;;3.35;1.95;;;24.50;35.80;;;;;;5072758;28;20489;-58
2021/04/16 01:35:47;;;;;;;3.55;1.77;;;24.50;35.80;;;;;;5056557;28;20032;-55
2021/04/16 01:38:14;;;;;;;3.40;2.03;;;24.50;35.80;;;;;;5078659;28;20039;-54
2021/04/16 01:40:39;;;;;;;2.67;1.58;;;24.40;35.80;;;;;;5082748;28;20459;-54
2021/04/16 01:43:27;;;;;;;3.00;1.80;;;24.40;35.80;;;;;;5081969;28;20043;-51
2021/04/16 01:46:19;;;;;;;2.17;1.50;;;24.40;35.70;;;;;;5063780;28;20040;-54
2021/04/16 01:48:47;;;;;;;2.38;1.70;;;24.40;35.70;;;;;;5079355;28;20109;-51
2021/04/16 01:51:17;;;;;;;2.92;1.77;;;24.40;35.80;;;;;;5084205;28;20024;-56
2021/04/16 01:53:42;;;;;;;2.55;1.73;;;24.40;35.80;;;;;;5083467;28;20031;-53
2021/04/16 01:56:08;;;;;;;2.90;1.50;;;24.40;35.80;;;;;;5084462;28;20938;-52
2021/04/16 01:58:34;;;;;;;3.10;1.70;;;24.40;35.80;;;;;;5082809;28;20108;-53
2021/04/16 02:01:00;;;;;;;3.10;1.70;;;24.40;35.80;;;;;;5080855;28;20301;-56
2021/04/16 02:03:26;;;;;;;3.55;1.75;;;24.40;35.80;;;;;;5081977;28;20043;-52
2021/04/16 02:05:52;;;;;;;3.20;1.83;;;24.40;35.80;;;;;;5081069;28;20554;-52
2021/04/16 02:08:18;;;;;;;3.13;1.65;;;24.40;35.80;;;;;;5081644;28;20517;-55
2021/04/16 02:10:44;;;;;;;2.60;1.42;;;24.30;35.70;;;;;;5074111;28;20028;-56
2021/04/16 02:13:11;;;;;;;2.83;1.80;;;24.30;35.70;;;;;;5083329;28;20042;-53
2021/04/16 02:15:37;;;;;;;2.88;1.50;;;24.30;35.70;;;;;;5081833;28;20154;-55
2021/04/16 02:18:04;;;;;;;2.72;1.50;;;24.30;35.70;;;;;;5083611;28;20540;-52
2021/04/16 02:20:31;;;;;;;2.90;1.48;;;24.30;35.70;;;;;;5081345;28;20059;-50
2021/04/16 02:22:56;;;;;;;2.47;1.40;;;24.30;35.70;;;;;;5082030;28;20478;-55
2021/04/16 02:25:22;;;;;;;2.50;1.60;;;24.30;35.80;;;;;;5081179;28;20077;-52
2021/04/16 02:27:48;;;;;;;2.63;1.52;;;24.30;35.80;;;;;;5081097;28;20059;-55
2021/04/16 02:30:34;;;;;;;3.05;1.50;;;24.30;35.70;;;;;;5080020;28;20108;-54
2021/04/16 02:33:00;;;;;;;2.40;1.50;;;24.30;35.70;;;;;;5075017;28;20032;-53
2021/04/16 02:35:26;;;;;;;1.80;1.20;;;24.30;35.80;;;;;;5080897;28;20474;-53
2021/04/16 02:37:54;;;;;;;2.38;1.40;;;24.20;35.70;;;;;;5074654;28;20052;-54
2021/04/16 02:40:22;;;;;;;2.08;1.33;;;24.20;35.70;;;;;;5073363;28;20421;-55
2021/04/16 02:42:48;;;;;;;2.20;1.40;;;24.30;35.80;;;;;;5080295;28;20035;-51
2021/04/16 02:45:16;;;;;;;2.08;1.25;;;24.30;35.80;;;;;;5078716;28;20051;-54
2021/04/16 02:47:42;;;;;;;2.60;1.50;;;24.20;35.70;;;;;;5081433;28;20032;-54
2021/04/16 02:50:10;;;;;;;2.08;1.27;;;24.30;35.80;;;;;;5081186;28;20028;-56
2021/04/16 02:52:36;;;;;;;3.13;1.55;;;24.20;35.80;;;;;;5080374;28;20097;-49
2021/04/16 02:55:02;;;;;;;2.00;1.30;;;24.20;35.80;;;;;;5082485;28;20027;-57
2021/04/16 02:57:28;;;;;;;2.25;1.40;;;24.20;35.80;;;;;;5083635;28;20034;-57
2021/04/16 02:59:54;;;;;;;2.75;1.42;;;24.20;35.80;;;;;;5069774;28;20025;-51
2021/04/16 03:02:19;;;;;;;2.35;1.25;;;24.20;35.80;;;;;;5074399;28;20097;-54
2021/04/16 03:04:45;;;;;;;3.00;1.42;;;24.20;35.80;;;;;;5082882;28;20039;-53
2021/04/16 03:07:11;;;;;;;2.28;1.60;;;24.20;35.80;;;;;;5083422;28;20627;-54
2021/04/16 03:09:36;;;;;;;2.42;1.40;;;24.20;35.80;;;;;;5082586;28;20123;-54
2021/04/16 03:12:02;;;;;;;1.88;1.23;;;24.20;35.80;;;;;;5079572;28;20424;-53
2021/04/16 03:14:28;;;;;;;2.05;1.20;;;24.20;35.80;;;;;;5061940;28;20036;-56
2021/04/16 03:16:53;;;;;;;2.17;1.38;;;24.20;35.80;;;;;;5075291;28;20452;-56
2021/04/16 03:19:19;;;;;;;2.17;1.25;;;24.10;35.70;;;;;;5074584;28;20103;-55
2021/04/16 03:21:45;;;;;;;2.75;1.25;;;24.10;35.80;;;;;;5073975;28;20111;-54
2021/04/16 03:24:11;;;;;;;2.05;1.10;;;24.10;35.80;;;;;;5072815;28;20032;-53
2021/04/16 03:26:37;;;;;;;2.03;1.13;;;24.10;35.80;;;;;;5081857;28;20036;-57
2021/04/16 03:29:03;;;;;;;2.25;1.25;;;24.20;35.80;;;;;;5081643;28;20039;-54
2021/04/16 03:31:29;;;;;;;1.80;1.20;;;24.10;35.80;;;;;;5081626;28;20463;-51
2021/04/16 03:33:57;;;;;;;1.52;1.00;;;24.10;35.80;;;;;;5079471;28;20166;-56
2021/04/16 03:36:23;;;;;;;2.35;1.30;;;24.10;35.80;;;;;;5081940;28;20051;-53
2021/04/16 03:38:49;;;;;;;1.88;1.08;;;24.10;35.80;;;;;;5082398;28;20375;-55
2021/04/16 03:41:16;;;;;;;2.50;1.20;;;24.10;35.80;;;;;;5079964;28;20028;-55
2021/04/16 03:43:42;;;;;;;2.67;1.40;;;24.10;35.80;;;;;;5071629;28;20570;-52
2021/04/16 03:46:08;;;;;;;1.90;1.10;;;24.10;35.80;;;;;;5075148;28;20078;-56
2021/04/16 03:48:34;;;;;;;2.42;1.10;;;24.10;35.80;;;;;;5073863;28;20063;-55
2021/04/16 03:50:59;;;;;;;2.10;1.17;;;24.10;35.80;;;;;;5076542;28;20964;-57
2021/04/16 03:53:25;;;;;;;2.22;1.20;;;24.10;35.80;;;;;;5058755;28;20050;-57
2021/04/16 03:55:51;;;;;;;1.63;0.90;;;24.10;35.80;;;;;;5080196;28;20120;-56
2021/04/16 03:58:17;;;;;;;1.70;1.10;;;24.10;35.80;;;;;;5073916;28;20096;-57
2021/04/16 04:00:42;;;;;;;2.03;1.10;;;24.10;35.80;;;;;;5075855;28;20082;-56
2021/04/16 04:03:10;;;;;;;1.83;1.20;;;24.10;35.80;;;;;;5082011;28;20086;-55
2021/04/16 04:05:37;;;;;;;1.80;1.15;;;24.00;35.80;;;;;;5074128;28;20031;-59
2021/04/16 04:08:03;;;;;;;1.67;1.10;;;24.10;35.90;;;;;;5068492;28;20607;-57
2021/04/16 04:10:35;;;;;;;2.03;1.10;;;24.00;35.80;;;;;;5079302;28;20031;-55
2021/04/16 04:13:01;;;;;;;1.50;0.93;;;24.00;35.80;;;;;;5076013;28;20032;-54
2021/04/16 04:15:27;;;;;;;1.40;1.00;;;24.00;35.80;;;;;;5081922;28;20065;-56
2021/04/16 04:17:53;;;;;;;2.25;1.20;;;24.00;35.90;;;;;;5078612;28;20103;-55
2021/04/16 04:20:23;;;;;;;2.03;1.10;;;24.00;35.80;;;;;;5085422;28;20031;-54
2021/04/16 04:22:49;;;;;;;1.67;1.10;;;24.00;35.90;;;;;;5081523;28;20060;-54
2021/04/16 04:25:21;;;;;;;2.17;1.17;;;24.00;35.90;;;;;;5075054;28;20040;-54
2021/04/16 04:27:48;;;;;;;1.85;1.05;;;24.00;35.90;;;;;;5078459;28;20088;-51
2021/04/16 04:30:15;;;;;;;1.83;0.93;;;24.00;36.40;;;;;;5078533;28;20081;-54
2021/04/16 04:32:40;;;;;;;1.88;1.10;;;24.00;35.90;;;;;;5074892;28;20032;-54
2021/04/16 04:35:07;;;;;;;2.08;1.10;;;24.00;35.90;;;;;;5081257;28;20169;-55
2021/04/16 04:37:33;;;;;;;1.95;1.27;;;24.00;36.00;;;;;;5074393;28;20032;-52
2021/04/16 04:39:58;;;;;;;2.38;1.23;;;24.00;36.00;;;;;;5079659;28;20563;-55
2021/04/16 04:42:24;;;;;;;1.48;1.05;;;24.00;36.00;;;;;;5072824;28;20028;-54
2021/04/16 04:44:50;;;;;;;2.35;1.10;;;24.00;36.00;;;;;;5079264;28;20525;-52
2021/04/16 04:47:17;;;;;;;1.65;0.93;;;24.00;36.00;;;;;;5081196;28;20039;-54
2021/04/16 04:49:42;;;;;;;1.73;1.10;;;24.00;36.00;;;;;;5081947;28;20104;-55
2021/04/16 04:52:19;;;;;;;1.75;1.00;;;24.00;36.00;;;;;;5079460;28;20115;-57
2021/04/16 04:54:47;;;;;;;2.15;1.23;;;24.00;36.00;;;;;;5079038;28;20051;-55
2021/04/16 04:57:14;;;;;;;1.23;0.90;;;23.90;36.00;;;;;;5080238;28;20531;-53
2021/04/16 04:59:41;;;;;;;1.77;1.00;;;23.90;36.00;;;;;;5081009;28;20028;-52
2021/04/16 05:02:07;;;;;;;1.60;1.00;;;23.90;36.00;;;;;;5076848;28;20321;-58
2021/04/16 05:04:32;;;;;;;1.95;1.05;;;23.90;36.10;;;;;;5081251;28;20106;-55
2021/04/16 05:06:58;;;;;;;2.30;1.10;;;23.90;36.00;;;;;;5079244;28;20039;-53
2021/04/16 05:09:24;;;;;;;2.10;1.00;;;23.90;36.00;;;;;;5077524;28;20032;-53
2021/04/16 05:11:50;;;;;;;1.98;0.90;;;23.90;36.10;;;;;;5084554;28;20032;-52
2021/04/16 05:14:16;;;;;;;1.95;1.00;;;23.90;36.10;;;;;;5083973;28;20470;-55
2021/04/16 05:16:41;;;;;;;1.83;1.20;;;23.90;36.10;;;;;;5080923;28;20274;-56
2021/04/16 05:19:07;;;;;;;2.70;1.05;;;23.90;36.10;;;;;;5084657;28;20624;-53
2021/04/16 05:21:36;;;;;;;1.02;0.82;;;23.90;36.10;;;;;;5083926;28;20016;-54
2021/04/16 05:24:02;;;;;;;2.00;1.20;;;23.90;36.10;;;;;;5076529;28;20040;-52
2021/04/16 05:26:27;;;;;;;1.75;1.00;;;23.90;36.10;;;;;;5081608;28;20042;-52
2021/04/16 05:28:53;;;;;;;1.23;0.90;;;23.90;36.10;;;;;;5085482;28;20037;-56
2021/04/16 05:31:19;;;;;;;1.73;1.10;;;23.90;36.10;;;;;;5082750;28;20062;-55
2021/04/16 05:33:44;;;;;;;1.90;1.02;;;23.90;36.10;;;;;;5083140;28;20039;-57
2021/04/16 05:36:10;;;;;;;2.05;1.05;;;23.90;36.10;;;;;;5083621;28;20021;-59
2021/04/16 05:38:35;;;;;;;2.05;1.17;;;23.90;36.60;;;;;;5085460;28;20032;-55
2021/04/16 05:41:01;;;;;;;1.48;1.10;;;23.90;35.90;;;;;;5084251;28;20108;-54
2021/04/16 05:43:27;;;;;;;1.70;1.20;;;23.90;35.80;;;;;;5082288;28;20043;-54
2021/04/16 05:45:52;;;;;;;1.92;1.20;;;23.90;35.60;;;;;;5095175;28;20055;-57
2021/04/16 05:48:18;;;;;;;2.20;1.40;;;23.90;35.60;;;;;;5092152;28;20032;-57
2021/04/16 05:50:43;;;;;;;2.20;1.30;;;23.90;35.70;;;;;;5087507;28;20483;-51
2021/04/16 05:53:09;;;;;;;2.30;1.38;;;23.90;35.70;;;;;;5084113;28;20052;-56
2021/04/16 05:55:35;;;;;;;3.33;1.33;;;24.00;35.70;;;;;;5079421;28;20458;-57
2021/04/16 05:58:01;;;;;;;2.40;1.30;;;24.00;35.70;;;;;;5070089;28;20206;-53
2021/04/16 06:00:27;;;;;;;2.05;1.25;;;24.00;35.70;;;;;;5084860;28;20069;-59
2021/04/16 06:02:53;;;;;;;2.22;1.30;;;24.10;35.80;;;;;;5084057;28;20032;-57
2021/04/16 06:05:20;;;;;;;2.05;1.20;;;24.10;35.70;;;;;;5083976;28;20672;-53
2021/04/16 06:07:46;;;;;;;1.95;1.38;;;24.10;35.80;;;;;;5085168;28;20052;-57
2021/04/16 06:10:14;;;;;;;2.13;1.27;;;24.10;35.70;;;;;;5085163;28;20078;-59
2021/04/16 06:12:39;;;;;;;2.03;1.17;;;24.20;35.80;;;;;;5084336;28;20039;-57
2021/04/16 06:15:08;;;;;;;1.90;1.23;;;24.20;35.80;;;;;;5083268;28;20032;-53
2021/04/16 06:17:34;;;;;;;2.10;1.30;;;24.20;35.70;;;;;;5083421;28;20028;-54
2021/04/16 06:20:00;;;;;;;2.20;1.20;;;24.20;35.70;;;;;;5079517;28;20330;-55
2021/04/16 06:22:26;;;;;;;2.63;1.17;;;24.30;35.70;;;;;;5083503;28;20070;-55
2021/04/16 06:24:52;;;;;;;2.03;1.30;;;24.20;35.60;;;;;;5083501;28;20075;-57
2021/04/16 06:27:19;;;;;;;1.83;1.25;;;24.20;35.70;;;;;;5084531;28;20028;-53
2021/04/16 06:29:45;;;;;;;1.75;1.15;;;24.30;35.80;;;;;;5084233;28;20032;-54
2021/04/16 06:32:13;;;;;;;1.55;1.10;;;24.30;35.90;;;;;;5052124;28;20045;-58
2021/04/16 06:34:39;;;;;;;2.17;1.30;;;24.30;35.80;;;;;;5077891;28;20404;-54
2021/04/16 06:37:05;;;;;;;1.90;1.20;;;24.30;35.70;;;;;;5079945;28;20126;-55
2021/04/16 06:39:31;;;;;;;2.30;1.17;;;24.30;35.70;;;;;;5079624;28;20038;-57
2021/04/16 06:41:59;;;;;;;2.13;1.40;;;24.40;35.80;;;;;;5083006;28;20083;-54
2021/04/16 06:44:30;;;;;;;1.92;1.30;;;24.40;35.70;;;;;;5085652;28;20127;-55
2021/04/16 06:47:02;;;;;;;3.30;1.30;;;24.40;35.70;;;;;;5083579;28;20043;-56
2021/04/16 06:49:30;;;;;;;1.80;1.20;;;24.50;35.70;;;;;;5083566;28;20050;-55
2021/04/16 06:52:02;;;;;;;1.60;1.10;;;24.40;35.60;;;;;;5076886;28;20528;-53
2021/04/16 06:54:40;;;;;;;2.40;1.25;;;24.50;35.70;;;;;;5081854;28;20516;-58
2021/04/16 06:57:26;;;;;;;2.00;1.08;;;24.50;35.80;;;;;;5065671;28;20198;-57
2021/04/16 07:00:09;;;;;;;1.85;1.20;;;24.50;35.80;;;;;;5083459;28;20028;-54
2021/04/16 07:02:40;;;;;;;1.42;1.10;;;24.60;35.90;;;;;;5081252;28;20097;-53
2021/04/16 07:05:37;;;;;;;2.40;1.27;;;24.60;35.90;;;;;;5095836;28;20662;-56
2021/04/16 07:08:05;;;;;;;2.17;1.20;;;24.60;35.70;;;;;;5083083;28;20047;-58
2021/04/16 07:10:37;;;;;;;2.05;1.20;;;24.60;35.90;;;;;;5087809;28;20036;-58
2021/04/16 07:13:04;;;;;;;1.67;1.08;;;24.60;36.00;;;;;;5087156;28;20043;-55
2021/04/16 07:15:44;;;;;;;1.60;1.10;;;24.60;36.00;;;;;;5084378;28;20044;-56
2021/04/16 07:18:17;;;;;;;1.90;1.20;;;24.70;35.90;;;;;;5082836;28;20035;-54
2021/04/16 07:20:43;;;;;;;2.30;1.20;;;24.70;35.90;;;;;;5088031;28;20446;-54
2021/04/16 07:23:09;;;;;;;1.90;1.13;;;24.70;35.90;;;;;;5082051;28;20055;-55
2021/04/16 07:25:54;;;;;;;3.00;1.27;;;24.80;36.50;;;;;;5076670;28;20484;-53
2021/04/16 07:28:40;;;;;;;1.40;0.93;;;24.80;35.90;;;;;;5066797;28;20665;-54
2021/04/16 07:31:36;;;;;;;2.13;1.17;;;24.80;35.90;;;;;;5084232;28;20078;-57
2021/04/16 07:34:03;;;;;;;2.00;1.40;;;24.80;36.00;;;;;;5081919;28;20040;-55
2021/04/16 07:36:32;;;;;;;2.00;1.40;;;24.70;32.10;;;;;;5084083;28;20103;-56
2021/04/16 07:39:06;;;;;;;2.97;1.40;;;24.50;29.70;;;;;;5084268;28;20115;-54
2021/04/16 07:42:06;;;;;;;2.00;1.50;;;24.20;28.50;;;;;;5084427;28;20572;-57
2021/04/16 07:44:35;;;;;;;2.33;1.75;;;23.90;27.50;;;;;;5064016;28;20093;-56
2021/04/16 07:47:13;;;;;;;2.58;1.60;;;23.50;26.60;;;;;;5084482;28;20906;-53
2021/04/16 07:49:57;;;;;;;2.90;1.67;;;23.10;26.80;;;;;;5083895;28;20077;-55
2021/04/16 07:52:35;;;;;;;2.65;1.80;;;22.80;26.30;;;;;;5083156;28;20020;-56
2021/04/16 07:55:29;;;;;;;3.10;2.30;;;22.50;26.70;;;;;;5083496;28;20024;-54
2021/04/16 07:58:02;;;;;;;3.20;2.20;;;22.30;27.10;;;;;;5072716;28;20060;-57
2021/04/16 08:00:40;;;;;;;2.47;1.80;;;22.40;28.00;;;;;;5085120;28;20044;-54
2021/04/16 08:03:05;;;;;;;4.57;1.50;;;22.50;27.80;;;;;;5085621;28;20035;-54
2021/04/16 08:05:55;;;;;;;1.70;1.30;;;22.70;28.20;;;;;;5082414;28;20032;-54
2021/04/16 08:08:30;;;;;;;2.13;1.40;;;22.80;28.60;;;;;;5083303;28;20124;-56
2021/04/16 08:11:04;;;;;;;2.63;1.40;;;23.00;29.10;;;;;;5082392;28;20096;-53
2021/04/16 08:13:47;;;;;;;2.13;1.25;;;23.10;29.20;;;;;;5077593;28;20457;-56
2021/04/16 08:16:16;;;;;;;1.50;1.15;;;23.20;29.30;;;;;;5083012;28;20099;-57
2021/04/16 08:18:48;;;;;;;1.95;1.38;;;23.30;29.60;;;;;;5082522;28;20071;-56
2021/04/16 08:21:20;;;;;;;2.50;1.30;;;23.30;29.60;;;;;;5084399;28;20029;-56
2021/04/16 08:24:12;;;;;;;2.15;1.33;;;23.30;30.00;;;;;;5075530;28;20139;-54
2021/04/16 08:26:41;;;;;;;1.92;1.17;;;23.40;30.10;;;;;;5080201;28;20048;-56
2021/04/16 08:29:12;;;;;;;2.65;1.30;;;23.50;30.30;;;;;;5082751;28;20043;-53
2021/04/16 08:31:54;;;;;;;1.70;1.10;;;23.50;30.40;;;;;;5081025;28;20044;-54
2021/04/16 08:34:26;;;;;;;1.42;1.10;;;23.50;30.60;;;;;;5093739;28;20424;-55
2021/04/16 08:36:53;;;;;;;1.77;1.05;;;23.50;30.70;;;;;;5071648;28;20032;-55
2021/04/16 08:39:32;;;;;;;1.20;1.00;;;23.60;30.90;;;;;;5083788;28;20031;-57
2021/04/16 08:42:16;;;;;;;1.50;1.00;;;23.60;31.20;;;;;;5060045;28;20039;-54
2021/04/16 08:45:22;;;;;;;1.75;1.05;;;23.60;31.30;;;;;;5086197;28;20538;-55
2021/04/16 08:48:02;;;;;;;1.75;1.10;;;23.70;31.40;;;;;;5080281;28;20463;-55
2021/04/16 08:50:31;;;;;;;1.92;1.10;;;23.70;31.50;;;;;;5085477;28;20456;-57
2021/04/16 08:53:01;;;;;;;1.42;1.02;;;23.70;31.60;;;;;;5085646;28;20453;-57
2021/04/16 08:55:39;;;;;;;1.17;0.93;;;23.70;31.70;;;;;;5086752;28;20044;-55
2021/04/16 08:58:25;;;;;;;1.25;1.00;;;23.70;31.80;;;;;;5086288;28;20047;-55
2021/04/16 09:00:56;;;;;;;1.55;0.98;;;23.70;31.90;;;;;;5080523;28;20346;-53
2021/04/16 09:03:39;;;;;;;0.98;0.80;;;23.80;32.10;;;;;;5085699;28;20050;-56
2021/04/16 09:06:06;;;;;;;1.77;1.30;;;23.80;32.20;;;;;;5082673;28;20036;-58
2021/04/16 09:08:39;;;;;;;2.72;1.50;;;23.70;29.90;;;;;;5079888;28;20056;-60
2021/04/16 09:11:07;;;;;;;2.22;1.70;;;23.50;29.00;;;;;;5074365;28;20542;-59
2021/04/16 09:13:33;;;;;;;3.55;1.70;;;23.40;28.10;;;;;;5078096;28;20115;-59
2021/04/16 09:16:17;;;;;;;2.63;2.00;;;23.20;27.40;;;;;;5078056;28;20609;-55
2021/04/16 09:18:54;;;;;;;1.98;1.60;;;23.00;26.60;;;;;;5077849;28;20046;-58
2021/04/16 09:21:23;;;;;;;2.50;1.88;;;22.70;26.40;;;;;;5071848;28;20123;-59
2021/04/16 09:23:54;;;;;;;2.78;2.00;;;22.60;26.20;;;;;;5074965;28;20130;-58
2021/04/16 09:26:46;;;;;;;2.47;1.80;;;22.40;26.30;;;;;;5080941;28;20024;-58
2021/04/16 09:29:37;;;;;;;2.38;1.80;;;22.20;26.10;;;;;;5077228;28;20039;-59
2021/04/16 09:32:07;;;;;;;2.42;1.70;;;22.10;26.60;;;;;;5064810;28;20063;-58
2021/04/16 09:34:45;;;;;;;4.10;1.60;;;22.00;26.80;;;;;;5067808;28;20038;-55
2021/04/16 09:37:28;;;;;;;2.03;1.50;;;22.10;27.10;;;;;;5080232;28;20098;-55
2021/04/16 09:40:15;;;;;;;2.03;1.60;;;22.10;27.20;;;;;;5084468;28;20028;-54
2021/04/16 09:42:58;;;;;;;1.80;1.30;;;22.10;26.80;;;;;;5081807;28;20036;-55
2021/04/16 09:45:32;;;;;;;1.92;1.48;;;22.00;27.30;;;;;;5079588;28;20024;-53
2021/04/16 09:48:05;;;;;;;1.40;1.20;;;22.00;27.20;;;;;;5084690;28;20046;-53
2021/04/16 09:50:36;;;;;;;2.80;1.65;;;22.00;27.50;;;;;;5082922;28;20130;-56
2021/04/16 09:53:21;;;;;;;2.85;1.48;;;22.00;27.70;;;;;;5085787;28;20119;-55
2021/04/16 09:55:59;;;;;;;1.85;1.40;;;22.00;27.40;;;;;;5080092;28;20412;-50
2021/04/16 09:58:42;;;;;;;2.00;1.30;;;22.00;27.90;;;;;;5083405;28;20031;-54
2021/04/16 10:01:09;;;;;;;1.70;1.40;;;21.90;28.10;;;;;;5078359;28;20056;-52
2021/04/16 10:03:49;;;;;;;1.80;1.30;;;21.90;27.70;;;;;;5084386;28;20059;-56
2021/04/16 10:06:34;;;;;;;1.60;1.20;;;21.90;27.90;;;;;;5077783;28;20050;-57
2021/04/16 10:09:17;;;;;;;1.42;1.10;;;21.90;27.80;;;;;;5076073;28;20058;-54
2021/04/16 10:11:53;;;;;;;1.70;1.30;;;21.90;28.10;;;;;;5084833;28;20473;-54
2021/04/16 10:14:26;;;;;;;1.80;1.20;;;21.90;28.50;;;;;;5084875;28;20536;-51
2021/04/16 10:16:56;;;;;;;1.52;1.10;;;21.90;28.10;;;;;;5084669;28;20637;-52
2021/04/16 10:19:29;;;;;;;2.67;1.17;;;21.90;28.50;;;;;;5082707;28;20874;-51
2021/04/16 10:21:55;;;;;;;1.77;1.20;;;21.90;28.50;;;;;;5085506;28;20074;-50
2021/04/16 10:59:18;;;;;;;1.42;1.10;;;22.00;28.80;;;;;;5082329;28;20025;-54
2021/04/16 12:38:05;;;;;;;1.52;0.98;;;22.80;32.50;;;;;;5082371;28;20043;-53
2021/04/16 12:40:31;;;;;;;1.92;0.90;;;22.80;32.50;;;;;;5077796;28;20752;-51
2021/04/16 12:42:58;;;;;;;1.48;0.95;;;22.80;32.60;;;;;;5082588;28;20043;-53
2021/04/16 12:45:25;;;;;;;1.42;0.90;;;22.80;32.60;;;;;;5080902;28;20031;-54
2021/04/16 12:47:57;;;;;;;1.38;0.93;;;22.90;32.70;;;;;;5080081;28;20516;-54
2021/04/16 12:50:28;;;;;;;2.25;1.00;;;22.90;32.80;;;;;;5079433;28;20039;-56
2021/04/16 12:52:54;;;;;;;2.08;1.00;;;22.90;32.80;;;;;;5079968;28;20036;-54
2021/04/16 12:55:21;;;;;;;2.13;1.00;;;22.90;32.80;;;;;;5077824;28;20131;-52
2021/04/16 12:57:50;;;;;;;2.00;1.00;;;22.90;33.20;;;;;;5079529;28;20438;-53
2021/04/16 13:00:24;;;;;;;1.65;1.00;;;22.90;33.00;;;;;;5081419;28;20459;-49
2021/04/16 13:03:19;;;;;;;1.45;0.90;;;22.90;33.00;;;;;;5079108;28;20836;-51
2021/04/16 13:05:47;;;;;;;1.50;0.82;;;22.80;32.90;;;;;;5077847;28;20426;-54
2021/04/16 13:08:13;;;;;;;1.58;1.00;;;22.90;33.00;;;;;;5076505;28;20028;-54
2021/04/16 13:10:38;;;;;;;1.92;1.00;;;22.90;33.10;;;;;;5074464;28;20043;-51
2021/04/16 13:13:04;;;;;;;1.60;0.93;;;22.90;33.10;;;;;;5075501;28;20126;-54
2021/04/16 13:15:30;;;;;;;1.33;0.80;;;22.90;33.10;;;;;;5077073;28;20024;-51
2021/04/16 13:18:00;;;;;;;1.48;0.90;;;22.90;33.20;;;;;;5066717;28;20033;-53
2021/04/16 13:20:27;;;;;;;1.88;1.10;;;22.90;33.20;;;;;;5071511;28;20343;-53
2021/04/16 13:22:53;;;;;;;1.73;0.90;;;22.90;33.30;;;;;;5076341;28;20032;-55
2021/04/16 13:25:28;;;;;;;2.13;0.90;;;22.90;33.40;;;;;;5075136;28;20047;-49
2021/04/16 13:27:54;;;;;;;1.45;0.88;;;23.00;33.50;;;;;;5058937;28;20056;-53
2021/04/16 13:30:23;;;;;;;2.13;0.88;;;23.00;33.60;;;;;;5078709;28;20136;-53
2021/04/16 13:32:52;;;;;;;2.10;0.90;;;23.00;33.60;;;;;;5078019;28;20370;-48
2021/04/16 13:35:26;;;;;;;1.35;0.98;;;23.00;33.70;;;;;;5063657;28;20077;-48
2021/04/16 13:37:52;;;;;;;1.60;0.98;;;23.00;33.80;;;;;;5070677;28;20103;-55
2021/04/16 13:40:18;;;;;;;1.50;0.85;;;23.00;33.90;;;;;;5078544;28;20428;-55
2021/04/16 13:42:43;;;;;;;1.27;0.90;;;23.00;33.90;;;;;;5077795;28;20109;-50
2021/04/16 13:45:09;;;;;;;1.67;0.90;;;23.00;34.00;;;;;;5076537;28;20031;-51
2021/04/16 13:47:41;;;;;;;2.10;0.85;;;23.00;34.00;;;;;;5078123;28;20443;-51
2021/04/16 13:50:08;;;;;;;1.52;1.00;;;23.00;34.10;;;;;;5077278;28;20104;-55
2021/04/16 13:52:33;;;;;;;2.08;1.00;;;23.00;34.20;;;;;;5078491;28;20028;-53
2021/04/16 13:54:59;;;;;;;2.50;0.90;;;23.00;34.20;;;;;;5078765;28;20035;-50
2021/04/16 13:57:24;;;;;;;2.47;1.00;;;23.00;34.30;;;;;;5075297;28;20032;-54
2021/04/16 13:59:50;;;;;;;1.52;1.00;;;23.00;34.40;;;;;;5078069;28;20368;-53
2021/04/16 14:02:21;;;;;;;1.20;0.80;;;23.00;34.40;;;;;;5073951;28;20422;-49
2021/04/16 14:04:48;;;;;;;1.85;1.02;;;23.00;34.40;;;;;;5076827;28;20371;-50
2021/04/16 14:07:16;;;;;;;1.67;0.93;;;23.00;34.50;;;;;;5079071;28;20044;-52
2021/04/16 14:09:41;;;;;;;1.55;0.80;;;23.00;34.60;;;;;;5059959;28;20046;-57
2021/04/16 14:12:11;;;;;;;2.53;0.90;;;23.00;34.60;;;;;;5078466;28;20486;-52
2021/04/16 14:14:37;;;;;;;1.33;0.95;;;23.00;34.70;;;;;;5075150;28;20032;-51
2021/04/16 14:17:10;;;;;;;1.70;1.00;;;23.10;34.70;;;;;;5059707;28;20554;-51
2021/04/16 14:19:48;;;;;;;1.92;1.00;;;23.10;34.80;;;;;;5082688;28;20491;-48
2021/04/16 14:22:25;;;;;;;1.75;1.00;;;23.00;34.80;;;;;;5076573;28;20489;-52
2021/04/16 14:24:51;;;;;;;1.63;1.00;;;23.10;35.00;;;;;;5078803;28;20035;-51
2021/04/16 14:27:16;;;;;;;1.83;1.00;;;23.10;34.90;;;;;;5078944;28;20035;-58
2021/04/16 14:29:42;;;;;;;1.40;1.00;;;23.10;35.00;;;;;;5075408;28;20039;-53
2021/04/16 14:32:11;;;;;;;1.60;1.00;;;23.10;35.10;;;;;;5077220;28;20047;-52
2021/04/16 14:34:38;;;;;;;1.75;1.00;;;23.10;35.10;;;;;;5079255;28;20043;-52
2021/04/16 14:37:04;;;;;;;2.10;1.00;;;23.10;35.10;;;;;;5078500;28;20087;-51
2021/04/16 14:39:31;;;;;;;2.80;1.00;;;23.10;35.70;;;;;;5075221;28;20374;-51
2021/04/16 14:41:58;;;;;;;1.95;1.00;;;23.10;35.20;;;;;;5079775;28;20274;-49
2021/04/16 14:44:24;;;;;;;2.28;1.10;;;23.10;35.20;;;;;;5080448;28;20063;-52
2021/04/16 14:46:51;;;;;;;1.15;0.90;;;23.10;35.30;;;;;;5079692;28;20044;-53
2021/04/16 14:49:19;;;;;;;3.10;1.00;;;23.10;35.30;;;;;;5080434;28;20609;-51
2021/04/16 14:51:45;;;;;;;1.90;1.10;;;23.10;35.40;;;;;;5077029;28;20047;-52
2021/04/16 14:54:36;;;;;;;1.60;0.98;;;23.10;35.40;;;;;;5078469;28;20042;-54
2021/04/16 14:57:07;;;;;;;2.47;1.00;;;23.10;35.50;;;;;;5075317;28;20657;-55
2021/04/16 14:59:39;;;;;;;2.47;1.00;;;23.20;35.60;;;;;;5078486;28;20210;-53
2021/04/16 15:02:06;;;;;;;1.50;0.90;;;23.10;35.60;;;;;;5079530;28;20584;-52
2021/04/16 15:04:32;;;;;;;2.78;1.13;;;23.10;35.60;;;;;;5084878;28;20146;-53
2021/04/16 15:07:03;;;;;;;1.80;1.00;;;23.20;35.70;;;;;;5075508;28;20035;-53
2021/04/16 15:09:39;;;;;;;1.30;0.90;;;23.20;35.80;;;;;;5073423;28;20035;-54
2021/04/16 15:12:05;;;;;;;1.80;0.98;;;23.10;35.80;;;;;;5074581;28;20119;-50
2021/04/16 15:14:32;;;;;;;2.05;1.10;;;23.20;35.90;;;;;;5075237;28;20107;-51